createdAt,value
2017-05-08T00:01:27.060Z,15.63
2017-05-08T00:03:54.366Z,15.10
2017-05-08T00:09:15.458Z,14.98
2017-05-08T00:11:42.394Z,14.92
2017-05-08T00:14:09.435Z,14.73
2017-05-08T00:16:36.411Z,15.50
2017-05-08T00:19:04.177Z,14.82
2017-05-08T00:21:31.194Z,14.55
2017-05-08T00:23:58.270Z,14.40
2017-05-08T00:26:26.022Z,13.17
2017-05-08T00:28:53.709Z,13.20
2017-05-08T00:31:20.691Z,13.52
2017-05-08T00:33:48.491Z,14.30
2017-05-08T00:36:15.465Z,14.32
2017-05-08T00:38:42.448Z,15.40
2017-05-08T00:41:09.433Z,14.32
2017-05-08T00:43:37.164Z,15.72
2017-05-08T00:46:04.157Z,15.30
2017-05-08T00:48:31.214Z,17.40
2017-05-08T00:50:58.225Z,17.87
2017-05-08T00:53:25.216Z,18.00
2017-05-08T00:55:52.201Z,19.57
2017-05-08T00:58:37.890Z,17.16
2017-05-08T01:01:11.703Z,19.27
2017-05-08T01:03:38.809Z,18.75
2017-05-08T01:08:59.774Z,18.15
2017-05-08T01:11:27.285Z,18.32
2017-05-08T01:13:54.258Z,18.00
2017-05-08T01:16:21.232Z,17.60
2017-05-08T01:18:48.169Z,19.18
2017-05-08T01:21:15.080Z,18.63
2017-05-08T01:23:42.286Z,19.37
2017-05-08T01:26:09.255Z,18.50
2017-05-08T01:28:36.294Z,18.40
2017-05-08T01:31:03.260Z,19.18
2017-05-08T01:33:31.127Z,18.63
2017-05-08T01:36:18.652Z,17.98
2017-05-08T01:38:45.609Z,18.55
2017-05-08T01:41:32.517Z,19.08
2017-05-08T01:46:54.384Z,19.08
2017-05-08T01:49:21.368Z,18.33
2017-05-08T01:54:42.186Z,18.28
2017-05-08T01:57:09.122Z,17.50
2017-05-08T01:59:36.211Z,16.80
2017-05-08T02:02:03.176Z,17.70
2017-05-08T02:04:30.752Z,16.15
2017-05-08T02:06:57.700Z,16.10
2017-05-08T02:09:37.611Z,16.03
2017-05-08T02:12:04.798Z,16.37
2017-05-08T02:14:31.830Z,16.30
2017-05-08T02:16:59.054Z,16.72
2017-05-08T02:22:20.306Z,16.88
2017-05-08T02:24:47.255Z,17.28
2017-05-08T02:27:15.213Z,18.20
2017-05-08T02:29:42.235Z,18.38
2017-05-08T02:32:26.102Z,17.90
2017-05-08T02:34:54.093Z,18.15
2017-05-08T02:37:21.026Z,17.22
2017-05-08T02:39:47.978Z,16.68
2017-05-08T02:42:15.851Z,17.00
2017-05-08T02:44:43.517Z,17.80
2017-05-08T02:47:10.471Z,17.25
2017-05-08T02:49:38.557Z,17.93
2017-05-08T02:52:05.526Z,18.95
2017-05-08T02:54:32.462Z,17.54
2017-05-08T02:56:59.432Z,18.73
2017-05-08T02:59:26.410Z,18.33
2017-05-08T03:01:54.187Z,18.20
2017-05-08T03:04:36.166Z,18.45
2017-05-08T03:07:04.160Z,18.80
2017-05-08T03:12:24.845Z,18.90
2017-05-08T03:14:53.620Z,18.88
2017-05-08T03:17:20.586Z,19.97
2017-05-08T03:19:48.642Z,20.38
2017-05-08T03:22:15.598Z,19.47
2017-05-08T03:27:37.423Z,20.98
2017-05-08T03:30:04.389Z,20.32
2017-05-08T03:32:32.061Z,20.37
2017-05-08T03:34:59.737Z,19.72
2017-05-08T03:37:26.666Z,19.73
2017-05-08T03:39:53.593Z,19.95
2017-05-08T03:42:20.800Z,21.34
2017-05-08T03:44:47.736Z,20.28
2017-05-08T03:47:14.699Z,20.52
2017-05-08T03:49:41.681Z,19.90
2017-05-08T03:52:15.319Z,20.87
2017-05-08T03:57:36.165Z,19.92
2017-05-08T04:00:03.245Z,20.48
2017-05-08T04:02:30.205Z,20.88
2017-05-08T04:04:57.949Z,22.37
2017-05-08T04:07:25.088Z,20.48
2017-05-08T04:09:52.815Z,21.33
2017-05-08T04:12:19.916Z,20.75
2017-05-08T04:14:49.502Z,21.72
2017-05-08T04:17:16.489Z,21.85
2017-05-08T04:19:43.465Z,22.13
2017-05-08T04:22:10.493Z,22.38
2017-05-08T04:24:37.500Z,25.42
2017-05-08T04:27:04.515Z,22.32
2017-05-08T04:29:31.491Z,22.80
2017-05-08T04:31:58.563Z,22.23
2017-05-08T04:34:25.671Z,23.48
2017-05-08T04:36:52.764Z,23.47
2017-05-08T04:39:23.195Z,23.67
2017-05-08T04:41:50.158Z,27.50
2017-05-08T04:44:17.186Z,25.47
2017-05-08T04:46:44.846Z,25.63
2017-05-08T04:49:11.834Z,27.18
2017-05-08T04:51:38.912Z,27.72
2017-05-08T04:54:05.861Z,29.85
2017-05-08T04:56:33.671Z,29.78
2017-05-08T04:59:00.795Z,32.65
2017-05-08T05:01:27.935Z,30.65
2017-05-08T05:03:54.924Z,38.05
2017-05-08T05:06:21.893Z,37.77
2017-05-08T05:08:48.877Z,37.72
2017-05-08T05:11:15.838Z,41.92
2017-05-08T05:13:42.802Z,42.77
2017-05-08T05:16:09.783Z,40.30
2017-05-08T05:18:36.755Z,39.67
2017-05-08T05:21:05.687Z,35.92
2017-05-08T05:23:33.723Z,35.87
2017-05-08T05:26:01.261Z,33.98
2017-05-08T05:28:28.200Z,33.70
2017-05-08T05:30:55.950Z,36.92
2017-05-08T05:33:22.906Z,35.20
2017-05-08T05:35:50.612Z,35.12
2017-05-08T05:38:17.573Z,36.52
2017-05-08T05:40:44.602Z,38.87
2017-05-08T05:43:11.602Z,37.55
2017-05-08T05:45:39.287Z,45.93
2017-05-08T05:48:06.244Z,43.85
2017-05-08T05:50:33.248Z,48.12
2017-05-08T05:53:00.926Z,45.90
2017-05-08T05:55:28.260Z,46.45
2017-05-08T05:57:55.231Z,52.50
2017-05-08T06:00:22.207Z,52.34
2017-05-08T06:02:49.202Z,48.25
2017-05-08T06:05:16.943Z,47.07
2017-05-08T06:07:43.917Z,40.03
2017-05-08T06:10:11.618Z,40.45
2017-05-08T06:12:38.562Z,41.22
2017-05-08T06:15:06.111Z,39.63
2017-05-08T06:17:33.151Z,43.22
2017-05-08T06:20:00.138Z,46.10
2017-05-08T06:22:27.848Z,47.55
2017-05-08T06:24:54.815Z,46.87
2017-05-08T06:27:21.784Z,46.15
2017-05-08T06:29:49.905Z,47.68
2017-05-08T06:32:16.851Z,47.77
2017-05-08T06:34:43.839Z,46.95
2017-05-08T06:37:10.852Z,48.12
2017-05-08T06:39:38.236Z,48.78
2017-05-08T06:42:05.262Z,47.05
2017-05-08T06:44:32.206Z,48.13
2017-05-08T06:46:59.871Z,49.92
2017-05-08T06:49:28.170Z,49.47
2017-05-08T06:51:56.200Z,43.60
2017-05-08T06:54:23.157Z,39.52
2017-05-08T06:56:50.134Z,34.75
2017-05-08T06:59:17.090Z,32.88
2017-05-08T07:01:44.350Z,28.18
2017-05-08T07:04:12.433Z,26.20
2017-05-08T07:06:39.874Z,26.42
2017-05-08T07:09:07.642Z,26.85
2017-05-08T07:11:34.598Z,26.76
2017-05-08T07:14:02.374Z,25.20
2017-05-08T07:16:29.349Z,26.90
2017-05-08T07:19:20.169Z,27.45
2017-05-08T07:21:47.282Z,27.70
2017-05-08T07:24:28.231Z,29.43
2017-05-08T07:26:56.866Z,30.04
2017-05-08T07:29:23.854Z,31.43
2017-05-08T07:31:51.910Z,32.65
2017-05-08T07:34:18.937Z,33.33
2017-05-08T07:36:46.072Z,33.33
2017-05-08T07:39:13.137Z,32.25
2017-05-08T07:44:34.908Z,29.42
2017-05-08T07:47:02.026Z,29.73
2017-05-08T07:49:29.202Z,30.92
2017-05-08T07:51:56.453Z,37.17
2017-05-08T07:54:24.231Z,39.23
2017-05-08T07:56:51.483Z,69.98
2017-05-08T08:54:24.134Z,42.45
2017-05-08T08:56:51.163Z,43.88
2017-05-08T08:59:18.858Z,44.37
2017-05-08T09:01:45.834Z,45.70
2017-05-08T09:04:12.775Z,47.84
2017-05-08T09:06:39.748Z,54.02
2017-05-08T09:09:07.843Z,57.92
2017-05-08T09:11:35.175Z,57.43
2017-05-08T09:14:04.284Z,59.77
2017-05-08T09:16:31.418Z,62.85
2017-05-08T09:19:00.179Z,66.10
2017-05-08T09:21:29.326Z,65.27
2017-05-08T09:23:56.505Z,60.87
2017-05-08T09:26:23.694Z,56.28
2017-05-08T09:28:51.442Z,53.25
2017-05-08T09:31:18.696Z,55.33
2017-05-08T09:36:21.370Z,51.15
2017-05-08T09:38:56.180Z,57.05
2017-05-08T09:41:24.385Z,55.22
2017-05-08T09:43:52.329Z,57.90
2017-05-08T09:46:21.454Z,63.28
2017-05-08T09:48:53.538Z,57.88
2017-05-08T09:51:33.083Z,58.53
2017-05-08T09:54:00.778Z,58.28
2017-05-08T09:56:27.745Z,63.80
2017-05-08T09:58:54.694Z,63.94
2017-05-08T10:01:22.463Z,69.03
2017-05-08T10:03:49.609Z,73.90
2017-05-08T10:06:16.813Z,73.28
2017-05-08T10:08:44.890Z,72.70
2017-05-08T10:11:12.123Z,67.42
2017-05-08T10:13:39.196Z,56.07
2017-05-08T10:16:06.911Z,55.58
2017-05-08T10:18:34.007Z,47.85
2017-05-08T10:21:00.983Z,53.58
2017-05-08T10:23:27.982Z,48.87
2017-05-08T10:25:55.032Z,55.70
2017-05-08T10:28:22.276Z,55.07
2017-05-08T10:33:44.230Z,55.77
2017-05-08T10:36:11.260Z,53.23
2017-05-08T10:38:38.208Z,49.15
2017-05-08T10:41:05.903Z,49.53
2017-05-08T10:43:32.848Z,51.58
2017-05-08T10:45:59.799Z,51.05
2017-05-08T10:48:26.860Z,49.18
2017-05-08T10:50:53.813Z,50.98
2017-05-08T10:56:14.562Z,47.92
2017-05-08T10:58:41.619Z,51.08
2017-05-08T11:01:09.324Z,49.42
2017-05-08T11:03:36.322Z,48.32
2017-05-08T11:06:03.466Z,49.52
2017-05-08T11:08:31.712Z,51.28
2017-05-08T11:11:00.178Z,52.13
2017-05-08T11:13:33.592Z,52.70
2017-05-08T11:18:53.902Z,57.02
2017-05-08T11:21:21.042Z,48.52
2017-05-08T11:23:48.218Z,47.05
2017-05-08T11:26:15.795Z,45.53
2017-05-08T11:28:42.916Z,48.13
2017-05-08T11:31:10.736Z,45.20
2017-05-08T11:33:38.140Z,47.43
2017-05-08T11:36:06.257Z,48.12
2017-05-08T11:38:46.788Z,49.83
2017-05-08T11:41:13.935Z,58.52
2017-05-08T11:46:36.083Z,62.95
2017-05-08T11:49:03.163Z,63.43
2017-05-08T11:51:33.417Z,61.70
2017-05-08T11:54:03.809Z,58.25
2017-05-08T11:59:24.416Z,60.50
2017-05-08T12:01:51.568Z,70.48
2017-05-08T12:04:18.609Z,70.07
2017-05-08T12:06:45.620Z,58.40
2017-05-08T12:09:12.626Z,63.27
2017-05-08T12:11:39.916Z,63.30
2017-05-08T12:14:06.931Z,56.72
2017-05-08T12:16:33.913Z,61.88
2017-05-08T12:19:02.577Z,57.62
2017-05-08T12:21:30.800Z,66.45
2017-05-08T12:23:59.796Z,62.36
2017-05-08T12:26:26.819Z,59.90
2017-05-08T12:28:54.721Z,56.72
2017-05-08T12:31:29.515Z,62.73
2017-05-08T12:33:57.650Z,62.75
2017-05-08T12:36:24.773Z,66.68
2017-05-08T12:39:12.221Z,65.97
2017-05-08T12:41:39.202Z,65.65
2017-05-08T12:44:06.181Z,61.78
2017-05-08T12:46:33.257Z,62.42
2017-05-08T12:49:24.016Z,66.40
2017-05-08T12:51:51.443Z,62.73
2017-05-08T12:54:19.737Z,60.17
2017-05-08T12:56:57.449Z,60.32
2017-05-08T12:59:24.819Z,55.48
2017-05-08T13:01:51.837Z,57.33
2017-05-08T13:04:19.096Z,57.33
2017-05-08T13:06:46.080Z,49.47
2017-05-08T13:09:13.174Z,51.22
2017-05-08T13:11:40.997Z,46.90
2017-05-08T13:14:08.015Z,49.22
2017-05-08T13:16:35.057Z,47.47
2017-05-08T13:19:02.181Z,49.03
2017-05-08T13:24:23.593Z,42.78
2017-05-08T13:26:51.534Z,46.47
2017-05-08T13:29:18.612Z,42.98
2017-05-08T13:31:47.107Z,44.72
2017-05-08T13:34:14.281Z,43.82
2017-05-08T13:36:41.316Z,41.87
2017-05-08T13:39:08.377Z,39.28
2017-05-08T13:41:35.390Z,39.63
2017-05-08T13:44:03.276Z,37.70
2017-05-08T13:46:30.345Z,37.55
2017-05-08T13:48:57.496Z,38.25
2017-05-08T13:51:25.887Z,36.23
2017-05-08T13:53:53.304Z,37.63
2017-05-08T13:59:13.690Z,36.72
2017-05-08T14:01:41.169Z,35.80
2017-05-08T14:04:08.287Z,42.15
2017-05-08T14:06:35.679Z,35.72
2017-05-08T14:09:02.809Z,37.93
2017-05-08T14:11:31.284Z,38.52
2017-05-08T14:13:59.468Z,39.63
2017-05-08T14:19:20.628Z,43.58
2017-05-08T14:21:49.162Z,39.18
2017-05-08T14:24:30.387Z,41.53
2017-05-08T14:26:58.220Z,41.63
2017-05-08T14:29:25.313Z,37.90
2017-05-08T14:31:55.890Z,33.75
2017-05-08T14:34:27.498Z,32.13
2017-05-08T14:36:55.305Z,34.40
2017-05-08T14:39:22.802Z,34.78
2017-05-08T14:41:50.085Z,35.47
2017-05-08T14:44:17.283Z,35.65
2017-05-08T14:46:44.361Z,32.10
2017-05-08T14:49:12.617Z,32.98
2017-05-08T14:51:43.042Z,30.00
2017-05-08T14:54:10.810Z,33.06
2017-05-08T14:56:37.887Z,44.60
2017-05-08T15:01:59.401Z,25.15
2017-05-08T15:04:26.671Z,26.57
2017-05-08T15:06:54.567Z,22.62
2017-05-08T15:09:22.489Z,22.12
2017-05-08T15:11:49.521Z,21.17
2017-05-08T15:14:16.792Z,21.65
2017-05-08T15:16:43.948Z,21.63
2017-05-08T15:19:11.158Z,21.05
2017-05-08T15:22:03.201Z,23.35
2017-05-08T15:24:30.600Z,23.87
2017-05-08T15:26:58.600Z,22.35
2017-05-08T15:29:25.745Z,20.90
2017-05-08T15:31:52.775Z,19.48
2017-05-08T15:34:19.837Z,19.83
2017-05-08T15:36:47.136Z,20.85
2017-05-08T15:39:14.285Z,17.92
2017-05-08T15:41:42.480Z,17.20
2017-05-08T15:44:10.083Z,17.05
2017-05-08T15:46:37.196Z,17.05
2017-05-08T15:49:05.155Z,17.45
2017-05-08T15:51:32.503Z,18.10
2017-05-08T15:53:59.575Z,19.60
2017-05-08T15:56:27.599Z,19.07
2017-05-08T15:58:54.775Z,20.67
2017-05-08T16:01:22.698Z,23.20
2017-05-08T16:06:45.435Z,20.73
2017-05-08T16:09:12.660Z,18.65
2017-05-08T16:11:41.191Z,19.03
2017-05-08T16:17:01.836Z,18.97
2017-05-08T16:19:28.976Z,18.30
2017-05-08T16:21:56.138Z,19.83
2017-05-08T16:24:23.576Z,19.30
2017-05-08T16:26:51.104Z,18.95
2017-05-08T16:29:19.868Z,19.45
2017-05-08T16:31:49.071Z,20.20
2017-05-08T16:37:10.160Z,18.75
2017-05-08T16:39:37.965Z,20.57
2017-05-08T16:42:07.698Z,18.10
2017-05-08T16:44:34.836Z,18.97
2017-05-08T16:47:02.142Z,18.90
2017-05-08T16:49:30.026Z,19.23
2017-05-08T16:51:58.293Z,24.05
2017-05-08T16:54:25.505Z,23.40
2017-05-08T16:56:54.280Z,23.50
2017-05-08T16:59:21.645Z,22.22
2017-05-08T17:01:50.418Z,22.20
2017-05-08T17:04:19.632Z,25.35
2017-05-08T17:09:40.362Z,22.13
2017-05-08T17:12:08.268Z,21.98
2017-05-08T17:17:17.630Z,22.60
2017-05-08T17:19:46.046Z,22.73
2017-05-08T17:22:13.394Z,22.77
2017-05-08T17:24:40.530Z,22.03
2017-05-08T17:27:08.299Z,21.13
2017-05-08T17:29:35.405Z,20.87
2017-05-08T17:32:02.594Z,20.33
2017-05-08T17:34:30.016Z,21.92
2017-05-08T17:36:57.396Z,21.15
2017-05-08T17:42:18.961Z,21.68
2017-05-08T17:44:46.011Z,20.08
2017-05-08T17:47:16.213Z,18.90
2017-05-08T17:52:30.875Z,16.87
2017-05-08T17:54:59.332Z,16.70
2017-05-08T17:57:32.104Z,16.48
2017-05-08T18:00:00.718Z,17.05
2017-05-08T18:02:28.781Z,15.83
2017-05-08T18:04:58.123Z,16.82
2017-05-08T18:13:12.066Z,13.48
2017-05-08T18:15:39.412Z,12.70
2017-05-08T18:18:06.721Z,12.52
2017-05-08T18:20:34.212Z,11.37
2017-05-08T18:23:01.565Z,11.50
2017-05-08T18:25:28.635Z,10.58
2017-05-08T18:27:55.680Z,10.83
2017-05-08T18:30:22.915Z,9.22
2017-05-08T18:32:49.965Z,9.90
2017-05-08T18:35:17.003Z,9.18
2017-05-08T18:37:44.010Z,8.60
2017-05-08T18:40:11.048Z,8.48
2017-05-08T18:42:38.483Z,8.40
2017-05-08T18:45:06.516Z,8.22
2017-05-08T18:47:33.516Z,8.03
2017-05-08T18:50:00.829Z,8.00
2017-05-08T18:52:28.016Z,7.03
2017-05-08T18:54:55.299Z,6.88
2017-05-08T19:00:17.827Z,3.70
2017-05-08T19:02:45.058Z,3.15
2017-05-08T19:05:13.148Z,1.85
2017-05-08T19:07:40.221Z,1.70
2017-05-08T19:10:07.267Z,1.50
2017-05-08T19:12:34.610Z,1.67
2017-05-08T19:15:01.890Z,1.70
2017-05-08T19:17:29.141Z,2.00
2017-05-08T19:19:56.237Z,1.40
2017-05-08T19:22:23.284Z,1.20
2017-05-08T19:24:50.984Z,1.40
2017-05-08T19:27:17.956Z,1.23
2017-05-08T19:29:45.027Z,1.30
2017-05-08T19:32:11.966Z,1.36
2017-05-08T19:34:38.908Z,1.30
2017-05-08T19:37:05.937Z,1.25
2017-05-08T19:39:32.893Z,1.30
2017-05-08T19:42:00.099Z,1.32
2017-05-08T19:44:27.511Z,1.14
2017-05-08T19:46:54.500Z,1.37
2017-05-08T19:58:21.958Z,1.12
2017-05-08T20:00:48.936Z,1.00
2017-05-08T20:03:15.847Z,1.10
2017-05-08T20:05:42.820Z,1.30
2017-05-08T20:08:09.909Z,1.20
2017-05-08T20:10:36.846Z,1.40
2017-05-08T20:13:03.763Z,1.50
2017-05-08T20:15:30.768Z,1.90
2017-05-08T20:17:57.718Z,1.80
2017-05-08T20:20:24.999Z,2.12
2017-05-08T20:22:51.971Z,1.70
2017-05-08T20:25:18.971Z,2.00
2017-05-08T20:27:45.934Z,2.47
2017-05-08T20:30:13.650Z,2.70
2017-05-08T20:32:40.636Z,2.30
2017-05-08T20:35:08.355Z,2.92
2017-05-08T20:37:35.316Z,3.10
2017-05-08T20:40:02.260Z,2.83
2017-05-08T20:42:29.196Z,3.30
2017-05-08T20:44:56.448Z,3.27
2017-05-08T20:47:23.370Z,3.42
2017-05-08T20:49:50.338Z,3.90
2017-05-08T20:52:17.289Z,3.65
2017-05-08T20:54:44.240Z,4.10
2017-05-08T20:57:11.170Z,4.37
2017-05-08T20:59:38.114Z,4.17
2017-05-08T21:02:05.071Z,4.73
2017-05-08T21:04:32.015Z,5.45
2017-05-08T21:06:58.927Z,4.35
2017-05-08T21:09:25.851Z,4.83
2017-05-08T21:11:52.761Z,4.60
2017-05-08T21:14:20.437Z,4.98
2017-05-08T21:16:47.362Z,4.23
2017-05-08T21:19:14.291Z,5.43
2017-05-08T21:21:41.478Z,4.20
2017-05-08T21:24:08.382Z,3.67
2017-05-08T21:26:35.314Z,3.63
2017-05-08T21:29:02.263Z,4.20
2017-05-08T21:31:29.197Z,4.60
2017-05-08T21:33:56.106Z,5.17
2017-05-08T21:36:23.085Z,4.80
2017-05-08T21:38:50.000Z,4.03
2017-05-08T21:41:16.958Z,4.90
2017-05-08T21:43:43.908Z,5.20
2017-05-08T21:46:11.028Z,4.92
2017-05-08T21:48:37.939Z,5.05
2017-05-08T21:51:05.286Z,5.03
2017-05-08T21:53:32.229Z,4.98
2017-05-08T21:55:59.161Z,6.18
2017-05-08T21:58:26.117Z,6.20
2017-05-08T22:00:53.049Z,7.65
2017-05-08T22:03:19.970Z,8.65
2017-05-08T22:05:46.924Z,8.47
2017-05-08T22:08:13.854Z,8.52
2017-05-08T22:10:40.766Z,8.18
2017-05-08T22:13:08.453Z,7.05
2017-05-08T22:15:35.371Z,5.47
2017-05-08T22:18:03.052Z,5.43
2017-05-08T22:20:30.355Z,5.77
2017-05-08T22:22:57.281Z,5.03
2017-05-08T22:25:24.202Z,5.00
2017-05-08T22:27:51.143Z,5.83
2017-05-08T22:30:18.079Z,6.18
2017-05-08T22:32:45.038Z,6.18
2017-05-08T22:35:11.962Z,6.75
2017-05-08T22:37:38.869Z,6.07
2017-05-08T22:40:05.795Z,6.08
2017-05-08T22:42:32.726Z,7.38
2017-05-08T22:44:59.642Z,7.47
2017-05-08T22:47:26.578Z,6.97
2017-05-08T22:49:53.526Z,6.25
2017-05-08T22:52:20.532Z,6.82
2017-05-08T22:54:47.446Z,6.92
2017-05-08T22:57:14.377Z,6.60
2017-05-08T22:59:41.301Z,7.35
2017-05-08T23:02:08.246Z,7.00
2017-05-08T23:04:35.190Z,6.37
2017-05-08T23:07:02.129Z,6.50
2017-05-08T23:09:29.058Z,6.65
2017-05-08T23:11:56.010Z,7.00
2017-05-08T23:14:23.654Z,6.50
2017-05-08T23:16:50.572Z,5.50
2017-05-08T23:19:17.520Z,6.45
2017-05-08T23:21:44.455Z,5.53
2017-05-08T23:24:11.383Z,6.05
2017-05-08T23:26:38.342Z,6.10
2017-05-08T23:29:05.266Z,6.80
2017-05-08T23:31:32.194Z,7.85
2017-05-08T23:33:59.135Z,7.62
2017-05-08T23:36:26.050Z,7.13
2017-05-08T23:38:52.973Z,8.35
2017-05-08T23:41:19.889Z,7.43
2017-05-08T23:43:46.819Z,8.23
2017-05-08T23:46:13.737Z,8.60
2017-05-08T23:48:41.401Z,7.03
2017-05-08T23:51:09.082Z,7.52
2017-05-08T23:53:35.986Z,7.38
2017-05-08T23:56:03.198Z,9.68
2017-05-08T23:58:30.118Z,8.40
